sensor_id;sensor_type;location;lat;lon;timestamp;pressure;altitude;pressure_sealevel;temperature;humidity
21545;BME280;10933;50.754;11.508;2023-05-02T00:00:23;97511.34;;;7.46;100.00
21545;BME280;10933;50.754;11.508;2023-05-02T00:02:49;97511.91;;;7.43;100.00
21545;BME280;10933;50.754;11.508;2023-05-02T00:05:15;97513.84;;;7.37;100.00
21545;BME280;10933;50.754;11.508;2023-05-02T00:07:41;97519.53;;;7.31;100.00
21545;BME280;10933;50.754;11.508;2023-05-02T00:10:08;97512.28;;;7.31;100.00
21545;BME280;10933;50.754;11.508;2023-05-02T00:12:34;97496.63;;;7.44;100.00
21545;BME280;10933;50.754;11.508;2023-05-02T00:15:00;97497.41;;;7.44;100.00
21545;BME280;10933;50.754;11.508;2023-05-02T00:17:27;97495.25;;;7.46;100.00
21545;BME280;10933;50.754;11.508;2023-05-02T00:19:53;97486.13;;;7.47;100.00
21545;BME280;10933;50.754;11.508;2023-05-02T00:22:19;97486.69;;;7.44;100.00
21545;BME280;10933;50.754;11.508;2023-05-02T00:24:45;97493.72;;;7.35;100.00
21545;BME280;10933;50.754;11.508;2023-05-02T00:27:11;97501.88;;;7.25;100.00
21545;BME280;10933;50.754;11.508;2023-05-02T00:29:38;97496.06;;;7.13;100.00
21545;BME280;10933;50.754;11.508;2023-05-02T00:32:05;97511.06;;;7.08;100.00
21545;BME280;10933;50.754;11.508;2023-05-02T00:34:31;97519.22;;;6.93;100.00
21545;BME280;10933;50.754;11.508;2023-05-02T00:36:58;97530.00;;;6.83;100.00
21545;BME280;10933;50.754;11.508;2023-05-02T00:39:24;97542.91;;;6.71;100.00
21545;BME280;10933;50.754;11.508;2023-05-02T00:41:58;97555.00;;;6.58;100.00
21545;BME280;10933;50.754;11.508;2023-05-02T00:44:24;97569.81;;;6.40;100.00
21545;BME280;10933;50.754;11.508;2023-05-02T00:46:50;97573.59;;;6.29;100.00
21545;BME280;10933;50.754;11.508;2023-05-02T00:49:18;97581.63;;;6.29;100.00
21545;BME280;10933;50.754;11.508;2023-05-02T00:51:44;97572.25;;;6.22;100.00
21545;BME280;10933;50.754;11.508;2023-05-02T00:54:12;97585.94;;;6.15;100.00
21545;BME280;10933;50.754;11.508;2023-05-02T00:56:38;97592.91;;;6.11;100.00
21545;BME280;10933;50.754;11.508;2023-05-02T00:59:08;97575.75;;;6.27;100.00
21545;BME280;10933;50.754;11.508;2023-05-02T01:09:25;97563.94;;;6.38;100.00
21545;BME280;10933;50.754;11.508;2023-05-02T01:12:26;97573.06;;;6.22;100.00
21545;BME280;10933;50.754;11.508;2023-05-02T01:14:54;97574.94;;;6.16;100.00
21545;BME280;10933;50.754;11.508;2023-05-02T01:17:25;97583.81;;;6.12;100.00
21545;BME280;10933;50.754;11.508;2023-05-02T01:19:58;97591.28;;;6.05;100.00
21545;BME280;10933;50.754;11.508;2023-05-02T01:22:26;97597.47;;;6.00;100.00
21545;BME280;10933;50.754;11.508;2023-05-02T01:30:34;97612.69;;;5.89;100.00
21545;BME280;10933;50.754;11.508;2023-05-02T01:33:02;97604.16;;;5.98;100.00
21545;BME280;10933;50.754;11.508;2023-05-02T01:35:31;97608.94;;;5.96;100.00
21545;BME280;10933;50.754;11.508;2023-05-02T01:37:59;97610.56;;;6.02;100.00
21545;BME280;10933;50.754;11.508;2023-05-02T01:40:26;97609.78;;;6.01;100.00
21545;BME280;10933;50.754;11.508;2023-05-02T01:42:53;97619.66;;;5.85;100.00
21545;BME280;10933;50.754;11.508;2023-05-02T01:45:21;97624.47;;;5.94;100.00
21545;BME280;10933;50.754;11.508;2023-05-02T01:47:49;97630.38;;;5.90;100.00
21545;BME280;10933;50.754;11.508;2023-05-02T01:50:22;97641.03;;;5.80;100.00
21545;BME280;10933;50.754;11.508;2023-05-02T01:52:51;97654.41;;;5.75;100.00
21545;BME280;10933;50.754;11.508;2023-05-02T01:55:19;97661.88;;;5.68;100.00
21545;BME280;10933;50.754;11.508;2023-05-02T01:57:46;97662.97;;;5.67;100.00
21545;BME280;10933;50.754;11.508;2023-05-02T02:00:15;97667.25;;;5.73;100.00
21545;BME280;10933;50.754;11.508;2023-05-02T02:02:43;97674.19;;;5.69;100.00
21545;BME280;10933;50.754;11.508;2023-05-02T02:05:10;97686.53;;;5.75;100.00
21545;BME280;10933;50.754;11.508;2023-05-02T02:07:37;97669.94;;;5.78;100.00
21545;BME280;10933;50.754;11.508;2023-05-02T02:10:04;97694.81;;;5.74;100.00
21545;BME280;10933;50.754;11.508;2023-05-02T02:12:50;97697.19;;;5.65;100.00
21545;BME280;10933;50.754;11.508;2023-05-02T02:15:33;97704.69;;;5.63;100.00
21545;BME280;10933;50.754;11.508;2023-05-02T02:20:28;97705.75;;;5.62;100.00
21545;BME280;10933;50.754;11.508;2023-05-02T02:22:55;97718.88;;;5.64;100.00
21545;BME280;10933;50.754;11.508;2023-05-02T02:25:23;97743.16;;;5.57;100.00
21545;BME280;10933;50.754;11.508;2023-05-02T02:27:51;97742.91;;;5.53;100.00
21545;BME280;10933;50.754;11.508;2023-05-02T02:30:17;97740.50;;;5.57;100.00
21545;BME280;10933;50.754;11.508;2023-05-02T02:32:43;97750.91;;;5.48;100.00
21545;BME280;10933;50.754;11.508;2023-05-02T02:35:09;97761.31;;;5.45;100.00
21545;BME280;10933;50.754;11.508;2023-05-02T02:37:50;97771.47;;;5.38;100.00
21545;BME280;10933;50.754;11.508;2023-05-02T02:40:33;97770.91;;;5.36;100.00
21545;BME280;10933;50.754;11.508;2023-05-02T02:43:19;97773.06;;;5.44;100.00
21545;BME280;10933;50.754;11.508;2023-05-02T02:49:31;97775.19;;;5.37;100.00
21545;BME280;10933;50.754;11.508;2023-05-02T02:54:59;97789.09;;;5.34;100.00
21545;BME280;10933;50.754;11.508;2023-05-02T02:57:47;97797.13;;;5.34;100.00
21545;BME280;10933;50.754;11.508;2023-05-02T03:00:23;97800.28;;;5.30;100.00
21545;BME280;10933;50.754;11.508;2023-05-02T03:02:51;97798.72;;;5.35;100.00
21545;BME280;10933;50.754;11.508;2023-05-02T03:05:20;97793.66;;;5.38;100.00
21545;BME280;10933;50.754;11.508;2023-05-02T03:07:47;97792.38;;;5.51;100.00
21545;BME280;10933;50.754;11.508;2023-05-02T03:10:13;97792.91;;;5.53;100.00
21545;BME280;10933;50.754;11.508;2023-05-02T03:12:39;97795.06;;;5.56;100.00
21545;BME280;10933;50.754;11.508;2023-05-02T03:15:13;97798.03;;;5.59;100.00
21545;BME280;10933;50.754;11.508;2023-05-02T03:17:44;97798.84;;;5.65;100.00
21545;BME280;10933;50.754;11.508;2023-05-02T03:20:10;97801.78;;;5.64;100.00
21545;BME280;10933;50.754;11.508;2023-05-02T03:22:36;97811.69;;;5.63;100.00
21545;BME280;10933;50.754;11.508;2023-05-02T03:25:02;97809.53;;;5.65;100.00
21545;BME280;10933;50.754;11.508;2023-05-02T03:27:28;97807.41;;;5.67;100.00
21545;BME280;10933;50.754;11.508;2023-05-02T03:29:56;97806.88;;;5.70;100.00
21545;BME280;10933;50.754;11.508;2023-05-02T03:32:22;97806.66;;;5.77;100.00
21545;BME280;10933;50.754;11.508;2023-05-02T03:34:48;97797.03;;;5.81;100.00
21545;BME280;10933;50.754;11.508;2023-05-02T03:37:14;97793.56;;;5.85;100.00
21545;BME280;10933;50.754;11.508;2023-05-02T03:39:41;97793.34;;;5.92;100.00
21545;BME280;10933;50.754;11.508;2023-05-02T03:42:07;97795.22;;;5.97;100.00
21545;BME280;10933;50.754;11.508;2023-05-02T03:44:33;97794.19;;;5.98;100.00
21545;BME280;10933;50.754;11.508;2023-05-02T03:46:59;97804.31;;;5.96;100.00
21545;BME280;10933;50.754;11.508;2023-05-02T03:49:25;97800.56;;;5.97;100.00
21545;BME280;10933;50.754;11.508;2023-05-02T03:51:51;97811.53;;;5.90;100.00
21545;BME280;10933;50.754;11.508;2023-05-02T03:54:17;97811.81;;;5.94;100.00
21545;BME280;10933;50.754;11.508;2023-05-02T03:56:44;97825.72;;;5.90;100.00
21545;BME280;10933;50.754;11.508;2023-05-02T03:59:10;97825.16;;;5.88;100.00
21545;BME280;10933;50.754;11.508;2023-05-02T04:01:36;97832.13;;;5.89;100.00
21545;BME280;10933;50.754;11.508;2023-05-02T04:04:02;97831.63;;;5.93;100.00
21545;BME280;10933;50.754;11.508;2023-05-02T04:06:29;97843.41;;;5.97;100.00
21545;BME280;10933;50.754;11.508;2023-05-02T04:08:56;97840.72;;;5.97;100.00
21545;BME280;10933;50.754;11.508;2023-05-02T04:11:25;97840.22;;;6.05;100.00
21545;BME280;10933;50.754;11.508;2023-05-02T04:13:52;97839.97;;;6.11;100.00
21545;BME280;10933;50.754;11.508;2023-05-02T04:16:18;97841.84;;;6.16;100.00
21545;BME280;10933;50.754;11.508;2023-05-02T04:18:44;97842.41;;;6.18;100.00
21545;BME280;10933;50.754;11.508;2023-05-02T04:21:10;97855.25;;;6.16;100.00
21545;BME280;10933;50.754;11.508;2023-05-02T04:23:36;97854.19;;;6.22;100.00
21545;BME280;10933;50.754;11.508;2023-05-02T04:26:03;97861.41;;;6.22;100.00
21545;BME280;10933;50.754;11.508;2023-05-02T04:28:29;97870.50;;;6.20;100.00
21545;BME280;10933;50.754;11.508;2023-05-02T04:30:55;97871.31;;;6.21;100.00
21545;BME280;10933;50.754;11.508;2023-05-02T04:33:22;97888.97;;;6.22;100.00
21545;BME280;10933;50.754;11.508;2023-05-02T04:35:49;97883.13;;;6.25;100.00
21545;BME280;10933;50.754;11.508;2023-05-02T04:38:15;97887.94;;;6.28;100.00
21545;BME280;10933;50.754;11.508;2023-05-02T04:40:42;97894.91;;;6.34;100.00
21545;BME280;10933;50.754;11.508;2023-05-02T04:43:09;97898.44;;;6.45;100.00
21545;BME280;10933;50.754;11.508;2023-05-02T04:45:35;97882.91;;;6.52;100.00
21545;BME280;10933;50.754;11.508;2023-05-02T04:48:02;97888.53;;;6.56;100.00
21545;BME280;10933;50.754;11.508;2023-05-02T04:50:28;97887.47;;;6.72;100.00
21545;BME280;10933;50.754;11.508;2023-05-02T04:52:54;97891.50;;;6.85;100.00
21545;BME280;10933;50.754;11.508;2023-05-02T04:55:21;97891.25;;;6.91;100.00
21545;BME280;10933;50.754;11.508;2023-05-02T04:57:47;97893.41;;;6.99;100.00
21545;BME280;10933;50.754;11.508;2023-05-02T05:00:13;97886.44;;;7.14;100.00
21545;BME280;10933;50.754;11.508;2023-05-02T05:02:40;97902.53;;;7.14;100.00
21545;BME280;10933;50.754;11.508;2023-05-02T05:05:07;97896.34;;;7.18;100.00
21545;BME280;10933;50.754;11.508;2023-05-02T05:07:33;97902.78;;;7.22;100.00
21545;BME280;10933;50.754;11.508;2023-05-02T05:09:59;97912.72;;;7.27;100.00
21545;BME280;10933;50.754;11.508;2023-05-02T05:12:25;97918.31;;;7.35;100.00
21545;BME280;10933;50.754;11.508;2023-05-02T05:14:51;97915.09;;;7.54;100.00
21545;BME280;10933;50.754;11.508;2023-05-02T05:17:17;97921.25;;;7.64;100.00
21545;BME280;10933;50.754;11.508;2023-05-02T05:19:43;97927.94;;;7.72;100.00
21545;BME280;10933;50.754;11.508;2023-05-02T05:22:09;97928.47;;;7.79;100.00
21545;BME280;10933;50.754;11.508;2023-05-02T05:24:36;97938.91;;;7.86;100.00
21545;BME280;10933;50.754;11.508;2023-05-02T05:27:03;97942.09;;;7.98;100.00
21545;BME280;10933;50.754;11.508;2023-05-02T05:29:30;97949.38;;;7.92;100.00
21545;BME280;10933;50.754;11.508;2023-05-02T05:31:57;97959.78;;;8.14;100.00
21545;BME280;10933;50.754;11.508;2023-05-02T05:34:24;97955.97;;;8.36;100.00
21545;BME280;10933;50.754;11.508;2023-05-02T05:36:50;97964.38;;;8.73;100.00
21545;BME280;10933;50.754;11.508;2023-05-02T05:39:16;97968.34;;;8.86;100.00
21545;BME280;10933;50.754;11.508;2023-05-02T05:41:42;97970.91;;;9.01;100.00
21545;BME280;10933;50.754;11.508;2023-05-02T05:44:08;98002.47;;;8.91;100.00
21545;BME280;10933;50.754;11.508;2023-05-02T05:46:35;98022.63;;;8.93;100.00
21545;BME280;10933;50.754;11.508;2023-05-02T05:49:01;98042.53;;;8.87;100.00
21545;BME280;10933;50.754;11.508;2023-05-02T05:51:27;98068.72;;;8.61;100.00
21545;BME280;10933;50.754;11.508;2023-05-02T05:53:53;98102.09;;;8.45;100.00
21545;BME280;10933;50.754;11.508;2023-05-02T05:56:19;98119.84;;;8.41;100.00
21545;BME280;10933;50.754;11.508;2023-05-02T05:58:46;98124.66;;;8.49;100.00
21545;BME280;10933;50.754;11.508;2023-05-02T06:01:12;98130.59;;;8.41;100.00
21545;BME280;10933;50.754;11.508;2023-05-02T06:03:38;98137.03;;;8.45;100.00
21545;BME280;10933;50.754;11.508;2023-05-02T06:06:05;98155.03;;;8.44;100.00
21545;BME280;10933;50.754;11.508;2023-05-02T06:08:31;98157.44;;;8.51;100.00
21545;BME280;10933;50.754;11.508;2023-05-02T06:10:57;98176.00;;;8.58;100.00
21545;BME280;10933;50.754;11.508;2023-05-02T06:13:23;98181.91;;;8.65;100.00
21545;BME280;10933;50.754;11.508;2023-05-02T06:15:49;98186.97;;;8.71;100.00
21545;BME280;10933;50.754;11.508;2023-05-02T06:18:15;98199.34;;;8.77;100.00
21545;BME280;10933;50.754;11.508;2023-05-02T06:20:42;98200.66;;;8.90;100.00
21545;BME280;10933;50.754;11.508;2023-05-02T06:23:08;98205.19;;;9.00;100.00
21545;BME280;10933;50.754;11.508;2023-05-02T06:25:37;98191.09;;;9.33;100.00
21545;BME280;10933;50.754;11.508;2023-05-02T06:28:03;98195.78;;;9.62;100.00
21545;BME280;10933;50.754;11.508;2023-05-02T06:30:29;98192.66;;;9.94;100.00
21545;BME280;10933;50.754;11.508;2023-05-02T06:32:55;98199.81;;;10.09;100.00
21545;BME280;10933;50.754;11.508;2023-05-02T06:35:21;98219.50;;;10.09;100.00
21545;BME280;10933;50.754;11.508;2023-05-02T06:37:47;98240.72;;;10.16;100.00
21545;BME280;10933;50.754;11.508;2023-05-02T06:40:13;98274.59;;;9.78;100.00
21545;BME280;10933;50.754;11.508;2023-05-02T06:42:39;98292.69;;;9.72;100.00
21545;BME280;10933;50.754;11.508;2023-05-02T06:45:06;98314.75;;;9.79;100.00
21545;BME280;10933;50.754;11.508;2023-05-02T06:47:32;98337.91;;;9.80;100.00
21545;BME280;10933;50.754;11.508;2023-05-02T06:49:58;98352.94;;;9.86;100.00
21545;BME280;10933;50.754;11.508;2023-05-02T06:52:24;98375.31;;;9.87;100.00
21545;BME280;10933;50.754;11.508;2023-05-02T06:54:50;98381.75;;;9.91;100.00
21545;BME280;10933;50.754;11.508;2023-05-02T06:57:16;98408.72;;;9.86;100.00
21545;BME280;10933;50.754;11.508;2023-05-02T06:59:43;98406.25;;;9.99;100.00
21545;BME280;10933;50.754;11.508;2023-05-02T07:02:09;98407.78;;;10.21;100.00
21545;BME280;10933;50.754;11.508;2023-05-02T07:04:36;98416.16;;;10.19;100.00
21545;BME280;10933;50.754;11.508;2023-05-02T07:07:02;98428.81;;;10.24;100.00
21545;BME280;10933;50.754;11.508;2023-05-02T07:09:29;98434.66;;;10.46;100.00
21545;BME280;10933;50.754;11.508;2023-05-02T07:11:55;98450.31;;;10.44;100.00
21545;BME280;10933;50.754;11.508;2023-05-02T07:14:21;98460.53;;;10.47;100.00
21545;BME280;10933;50.754;11.508;2023-05-02T07:16:47;98481.84;;;10.44;100.00
21545;BME280;10933;50.754;11.508;2023-05-02T07:19:13;98497.16;;;10.53;100.00
21545;BME280;10933;50.754;11.508;2023-05-02T07:21:39;98514.47;;;10.42;100.00
21545;BME280;10933;50.754;11.508;2023-05-02T07:24:05;98513.88;;;10.55;100.00
21545;BME280;10933;50.754;11.508;2023-05-02T07:26:31;98521.38;;;10.64;100.00
21545;BME280;10933;50.754;11.508;2023-05-02T07:28:58;98517.81;;;10.83;100.00
21545;BME280;10933;50.754;11.508;2023-05-02T07:31:24;98518.00;;;10.97;100.00
21545;BME280;10933;50.754;11.508;2023-05-02T07:33:50;98525.38;;;11.26;100.00
21545;BME280;10933;50.754;11.508;2023-05-02T07:36:16;98539.91;;;11.35;100.00
21545;BME280;10933;50.754;11.508;2023-05-02T07:38:43;98545.13;;;11.55;100.00
21545;BME280;10933;50.754;11.508;2023-05-02T07:41:09;98555.00;;;11.75;100.00
21545;BME280;10933;50.754;11.508;2023-05-02T07:43:35;98568.38;;;11.95;100.00
21545;BME280;10933;50.754;11.508;2023-05-02T07:46:05;98571.50;;;12.36;100.00
21545;BME280;10933;50.754;11.508;2023-05-02T07:48:31;98579.78;;;12.69;100.00
21545;BME280;10933;50.754;11.508;2023-05-02T07:51:08;98613.56;;;12.48;100.00
21545;BME280;10933;50.754;11.508;2023-05-02T07:53:34;98633.25;;;12.53;100.00
21545;BME280;10933;50.754;11.508;2023-05-02T07:56:03;98653.94;;;12.10;100.00
21545;BME280;10933;50.754;11.508;2023-05-02T07:58:29;98668.94;;;12.26;100.00
21545;BME280;10933;50.754;11.508;2023-05-02T08:00:56;98684.13;;;12.22;100.00
21545;BME280;10933;50.754;11.508;2023-05-02T08:03:22;98694.66;;;12.19;100.00
21545;BME280;10933;50.754;11.508;2023-05-02T08:05:48;98681.59;;;12.31;100.00
21545;BME280;10933;50.754;11.508;2023-05-02T08:08:15;98673.38;;;12.46;100.00
21545;BME280;10933;50.754;11.508;2023-05-02T08:10:41;98668.19;;;12.50;100.00
21545;BME280;10933;50.754;11.508;2023-05-02T08:13:07;98664.97;;;12.48;100.00
21545;BME280;10933;50.754;11.508;2023-05-02T08:15:33;98693.59;;;12.20;100.00
21545;BME280;10933;50.754;11.508;2023-05-02T08:17:59;98704.56;;;11.99;100.00
21545;BME280;10933;50.754;11.508;2023-05-02T08:20:26;98706.63;;;12.13;100.00
21545;BME280;10933;50.754;11.508;2023-05-02T08:22:52;98713.97;;;12.07;100.00
21545;BME280;10933;50.754;11.508;2023-05-02T08:25:18;98719.69;;;12.00;100.00
21545;BME280;10933;50.754;11.508;2023-05-02T08:27:44;98727.22;;;12.08;100.00
21545;BME280;10933;50.754;11.508;2023-05-02T08:30:11;98729.91;;;12.08;100.00
21545;BME280;10933;50.754;11.508;2023-05-02T08:32:37;98726.41;;;12.08;100.00
21545;BME280;10933;50.754;11.508;2023-05-02T08:35:04;98723.88;;;12.22;100.00
21545;BME280;10933;50.754;11.508;2023-05-02T08:37:31;98717.94;;;12.20;100.00
21545;BME280;10933;50.754;11.508;2023-05-02T08:39:57;98728.44;;;12.26;100.00
21545;BME280;10933;50.754;11.508;2023-05-02T08:42:23;98735.94;;;12.34;100.00
21545;BME280;10933;50.754;11.508;2023-05-02T08:44:52;98736.19;;;12.67;100.00
21545;BME280;10933;50.754;11.508;2023-05-02T08:47:18;98759.50;;;12.63;100.00
21545;BME280;10933;50.754;11.508;2023-05-02T08:49:46;98774.13;;;12.62;100.00
21545;BME280;10933;50.754;11.508;2023-05-02T08:52:14;98761.69;;;12.61;100.00
21545;BME280;10933;50.754;11.508;2023-05-02T08:54:41;98767.59;;;12.34;100.00
21545;BME280;10933;50.754;11.508;2023-05-02T08:57:07;98773.53;;;12.36;100.00
21545;BME280;10933;50.754;11.508;2023-05-02T08:59:33;98766.53;;;12.30;100.00
21545;BME280;10933;50.754;11.508;2023-05-02T09:02:17;98754.38;;;12.27;100.00
21545;BME280;10933;50.754;11.508;2023-05-02T09:04:51;98752.31;;;12.14;100.00
21545;BME280;10933;50.754;11.508;2023-05-02T09:07:19;98750.09;;;12.21;100.00
21545;BME280;10933;50.754;11.508;2023-05-02T09:09:45;98750.56;;;12.33;100.00
21545;BME280;10933;50.754;11.508;2023-05-02T09:12:11;98748.66;;;12.34;100.00
21545;BME280;10933;50.754;11.508;2023-05-02T09:14:37;98762.88;;;12.45;100.00
21545;BME280;10933;50.754;11.508;2023-05-02T09:17:04;98768.50;;;12.58;100.00
21545;BME280;10933;50.754;11.508;2023-05-02T09:19:30;98767.03;;;12.71;100.00
21545;BME280;10933;50.754;11.508;2023-05-02T09:22:00;98780.00;;;12.69;100.00
21545;BME280;10933;50.754;11.508;2023-05-02T09:24:26;98774.28;;;12.76;100.00
21545;BME280;10933;50.754;11.508;2023-05-02T09:27:04;98802.22;;;12.66;100.00
21545;BME280;10933;50.754;11.508;2023-05-02T09:29:32;98822.78;;;12.67;100.00
21545;BME280;10933;50.754;11.508;2023-05-02T09:32:03;98839.72;;;12.83;100.00
21545;BME280;10933;50.754;11.508;2023-05-02T09:34:30;98856.78;;;12.83;100.00
21545;BME280;10933;50.754;11.508;2023-05-02T09:36:57;98873.19;;;12.97;100.00
21545;BME280;10933;50.754;11.508;2023-05-02T09:39:24;98886.91;;;13.06;100.00
21545;BME280;10933;50.754;11.508;2023-05-02T09:41:51;98906.94;;;13.05;100.00
21545;BME280;10933;50.754;11.508;2023-05-02T09:44:22;98915.31;;;13.08;100.00
21545;BME280;10933;50.754;11.508;2023-05-02T09:46:50;98919.31;;;13.16;100.00
21545;BME280;10933;50.754;11.508;2023-05-02T09:49:17;98931.59;;;13.03;100.00
21545;BME280;10933;50.754;11.508;2023-05-02T09:51:44;98938.41;;;13.01;100.00
21545;BME280;10933;50.754;11.508;2023-05-02T09:54:33;98947.91;;;12.98;100.00
21545;BME280;10933;50.754;11.508;2023-05-02T09:56:58;98963.41;;;12.82;100.00
21545;BME280;10933;50.754;11.508;2023-05-02T09:59:24;98959.38;;;12.80;100.00
21545;BME280;10933;50.754;11.508;2023-05-02T10:02:01;98955.28;;;12.87;100.00
21545;BME280;10933;50.754;11.508;2023-05-02T10:04:29;98967.72;;;12.88;100.00
21545;BME280;10933;50.754;11.508;2023-05-02T10:06:56;98971.66;;;13.06;100.00
21545;BME280;10933;50.754;11.508;2023-05-02T10:09:25;98968.59;;;13.23;100.00
21545;BME280;10933;50.754;11.508;2023-05-02T10:11:54;98983.78;;;13.19;100.00
21545;BME280;10933;50.754;11.508;2023-05-02T10:14:22;98987.50;;;13.28;100.00
21545;BME280;10933;50.754;11.508;2023-05-02T10:19:26;98986.72;;;14.14;100.00
21545;BME280;10933;50.754;11.508;2023-05-02T10:21:55;98993.28;;;14.99;100.00
21545;BME280;10933;50.754;11.508;2023-05-02T10:24:22;98968.59;;;15.84;100.00
21545;BME280;10933;50.754;11.508;2023-05-02T10:26:49;98937.78;;;17.83;100.00
21545;BME280;10933;50.754;11.508;2023-05-02T10:29:16;98978.00;;;19.75;100.00
21545;BME280;10933;50.754;11.508;2023-05-02T10:31:43;99017.38;;;21.89;100.00
21545;BME280;10933;50.754;11.508;2023-05-02T10:34:11;99875.69;;;23.51;100.00
21545;BME280;10933;50.754;11.508;2023-05-02T10:36:38;99964.22;;;22.40;100.00
21545;BME280;10933;50.754;11.508;2023-05-02T10:39:04;99991.38;;;23.16;100.00
21545;BME280;10933;50.754;11.508;2023-05-02T10:41:33;100040.72;;;23.82;100.00
21545;BME280;10933;50.754;11.508;2023-05-02T10:43:59;100034.59;;;23.15;100.00
21545;BME280;10933;50.754;11.508;2023-05-02T10:46:35;100052.41;;;24.43;100.00
21545;BME280;10933;50.754;11.508;2023-05-02T10:49:09;100044.63;;;23.20;100.00
21545;BME280;10933;50.754;11.508;2023-05-02T10:51:41;100026.66;;;23.14;100.00
21545;BME280;10933;50.754;11.508;2023-05-02T10:57:05;100001.25;;;20.09;100.00
21545;BME280;10933;50.754;11.508;2023-05-02T10:59:40;99980.44;;;20.76;100.00
21545;BME280;10933;50.754;11.508;2023-05-02T11:05:06;99951.34;;;19.52;100.00
21545;BME280;10933;50.754;11.508;2023-05-02T11:07:36;99937.03;;;18.90;100.00
21545;BME280;10933;50.754;11.508;2023-05-02T11:10:23;99953.84;;;18.59;100.00
21545;BME280;10933;50.754;11.508;2023-05-02T11:12:54;99959.56;;;20.12;100.00
21545;BME280;10933;50.754;11.508;2023-05-02T11:18:13;99996.97;;;23.71;100.00
21545;BME280;10933;50.754;11.508;2023-05-02T11:20:41;100023.25;;;23.26;100.00
21545;BME280;10933;50.754;11.508;2023-05-02T11:25:48;99992.31;;;20.17;100.00
21545;BME280;10933;50.754;11.508;2023-05-02T11:30:59;99954.06;;;17.96;100.00
21545;BME280;10933;50.754;11.508;2023-05-02T11:33:28;99929.63;;;17.28;100.00
21545;BME280;10933;50.754;11.508;2023-05-02T11:35:54;99905.19;;;17.13;100.00
21545;BME280;10933;50.754;11.508;2023-05-02T11:38:23;99889.72;;;16.69;100.00
21545;BME280;10933;50.754;11.508;2023-05-02T11:40:57;99886.00;;;16.49;100.00
21545;BME280;10933;50.754;11.508;2023-05-02T11:43:25;99880.53;;;16.55;100.00
21545;BME280;10933;50.754;11.508;2023-05-02T11:45:55;99859.44;;;16.31;100.00
21545;BME280;10933;50.754;11.508;2023-05-02T11:48:23;99852.38;;;16.25;100.00
21545;BME280;10933;50.754;11.508;2023-05-02T11:50:53;99841.03;;;16.08;100.00
21545;BME280;10933;50.754;11.508;2023-05-02T11:53:22;99814.44;;;15.95;100.00
21545;BME280;10933;50.754;11.508;2023-05-02T11:55:58;99793.28;;;15.81;100.00
21545;BME280;10933;50.754;11.508;2023-05-02T11:58:27;99769.44;;;15.68;100.00
21545;BME280;10933;50.754;11.508;2023-05-02T12:01:14;99748.72;;;15.72;100.00
21545;BME280;10933;50.754;11.508;2023-05-02T12:03:40;99726.34;;;15.91;100.00
21545;BME280;10933;50.754;11.508;2023-05-02T12:06:10;99730.63;;;15.97;100.00
21545;BME280;10933;50.754;11.508;2023-05-02T12:08:37;99750.13;;;16.14;100.00
21545;BME280;10933;50.754;11.508;2023-05-02T12:11:03;99758.75;;;16.26;100.00
21545;BME280;10933;50.754;11.508;2023-05-02T12:13:30;99777.28;;;16.58;100.00
21545;BME280;10933;50.754;11.508;2023-05-02T12:15:56;99803.59;;;16.78;100.00
21545;BME280;10933;50.754;11.508;2023-05-02T12:18:24;99812.59;;;16.34;100.00
21545;BME280;10933;50.754;11.508;2023-05-02T12:20:51;99814.59;;;15.54;100.00
21545;BME280;10933;50.754;11.508;2023-05-02T12:23:22;99836.44;;;14.93;100.00
21545;BME280;10933;50.754;11.508;2023-05-02T12:25:49;99856.53;;;14.61;100.00
21545;BME280;10933;50.754;11.508;2023-05-02T12:28:18;99831.03;;;14.62;100.00
21545;BME280;10933;50.754;11.508;2023-05-02T12:30:47;99824.78;;;14.82;100.00
21545;BME280;10933;50.754;11.508;2023-05-02T12:33:14;99854.66;;;14.77;100.00
21545;BME280;10933;50.754;11.508;2023-05-02T12:35:41;99853.03;;;14.76;100.00
21545;BME280;10933;50.754;11.508;2023-05-02T12:38:15;99834.28;;;14.75;100.00
21545;BME280;10933;50.754;11.508;2023-05-02T12:40:48;99838.34;;;14.67;100.00
21545;BME280;10933;50.754;11.508;2023-05-02T12:43:15;99791.34;;;14.46;100.00
21545;BME280;10933;50.754;11.508;2023-05-02T12:45:41;99768.81;;;14.61;100.00
21545;BME280;10933;50.754;11.508;2023-05-02T12:48:27;99793.00;;;14.93;100.00
21545;BME280;10933;50.754;11.508;2023-05-02T12:50:54;99832.09;;;15.02;100.00
21545;BME280;10933;50.754;11.508;2023-05-02T12:53:55;99836.97;;;16.94;100.00
21545;BME280;10933;50.754;11.508;2023-05-02T12:56:21;99919.00;;;18.27;100.00
21545;BME280;10933;50.754;11.508;2023-05-02T12:58:49;99983.59;;;17.89;100.00
21545;BME280;10933;50.754;11.508;2023-05-02T13:01:16;100012.03;;;18.84;100.00
21545;BME280;10933;50.754;11.508;2023-05-02T13:03:42;100019.03;;;18.90;100.00
21545;BME280;10933;50.754;11.508;2023-05-02T13:06:09;100033.47;;;18.23;100.00
21545;BME280;10933;50.754;11.508;2023-05-02T13:08:35;100025.19;;;17.81;100.00
21545;BME280;10933;50.754;11.508;2023-05-02T13:11:02;100018.19;;;17.70;100.00
21545;BME280;10933;50.754;11.508;2023-05-02T13:13:29;100024.19;;;18.72;100.00
21545;BME280;10933;50.754;11.508;2023-05-02T13:15:55;100031.34;;;18.68;100.00
21545;BME280;10933;50.754;11.508;2023-05-02T13:18:22;100047.59;;;19.21;100.00
21545;BME280;10933;50.754;11.508;2023-05-02T13:20:48;100048.59;;;18.40;100.00
21545;BME280;10933;50.754;11.508;2023-05-02T13:23:14;100047.28;;;17.45;100.00
21545;BME280;10933;50.754;11.508;2023-05-02T13:25:41;100026.22;;;17.51;100.00
21545;BME280;10933;50.754;11.508;2023-05-02T13:28:08;100030.63;;;17.47;100.00